createdAt,value
2017-06-21T00:00:36.220Z,79.16
2017-06-21T00:01:48.745Z,79.16
2017-06-21T00:03:01.234Z,79.16
2017-06-21T00:04:13.762Z,79.16
2017-06-21T00:05:26.276Z,79.45
2017-06-21T00:06:38.499Z,79.36
2017-06-21T00:07:50.734Z,79.55
2017-06-21T00:09:03.249Z,79.93
2017-06-21T00:10:15.794Z,79.93
2017-06-21T00:11:28.308Z,79.83
2017-06-21T00:12:40.526Z,80.03
2017-06-21T00:13:53.022Z,79.8
2017-06-21T00:15:05.550Z,80.18
2017-06-21T00:16:17.767Z,80.18
2017-06-21T00:17:30.321Z,80.27
2017-06-21T00:18:42.863Z,80.47
2017-06-21T00:19:55.381Z,80.37
2017-06-21T00:21:07.601Z,80.56
2017-06-21T00:22:20.122Z,80.56
2017-06-21T00:23:32.639Z,80.66
2017-06-21T00:24:44.868Z,80.94
2017-06-21T00:25:57.398Z,80.76
2017-06-21T00:27:09.928Z,81.33
2017-06-21T00:28:22.423Z,81.13
2017-06-21T00:29:34.630Z,80.9
2017-06-21T00:30:47.151Z,81.48
2017-06-21T00:31:59.372Z,81.48
2017-06-21T00:33:11.921Z,81.2
2017-06-21T00:34:24.460Z,81.2
2017-06-21T00:35:36.981Z,81.57
2017-06-21T00:36:49.509Z,81.77
2017-06-21T00:38:02.051Z,82.06
2017-06-21T00:39:14.562Z,81.96
2017-06-21T00:40:27.093Z,81.96
2017-06-21T00:41:39.628Z,81.86
2017-06-21T00:42:52.156Z,82.01
2017-06-21T00:44:04.455Z,82.3
2017-06-21T00:45:16.674Z,82.2
2017-06-21T00:46:29.223Z,82.2
2017-06-21T00:47:42.065Z,82.01
2017-06-21T00:48:54.586Z,82.78
2017-06-21T00:50:07.135Z,82.87
2017-06-21T00:51:19.681Z,82.97
2017-06-21T00:52:32.224Z,83.16
2017-06-21T00:53:44.773Z,83.16
2017-06-21T00:54:57.274Z,82.93
2017-06-21T00:56:09.795Z,83.4
2017-06-21T00:57:22.324Z,83.12
2017-06-21T00:58:34.874Z,83.03
2017-06-21T00:59:47.398Z,83.22
2017-06-21T01:00:59.620Z,83.6
2017-06-21T01:02:12.145Z,83.4
2017-06-21T01:03:24.691Z,83.5
2017-06-21T01:04:36.933Z,84.17
2017-06-21T01:05:49.435Z,84.55
2017-06-21T01:07:01.975Z,84.61
2017-06-21T01:08:14.518Z,84.8
2017-06-21T01:09:27.359Z,85.18
2017-06-21T01:10:39.887Z,85.18
2017-06-21T01:11:52.434Z,85.09
2017-06-21T01:13:04.986Z,85.47
2017-06-21T01:14:17.500Z,85.47
2017-06-21T01:15:29.720Z,85.38
2017-06-21T01:16:41.642Z,85.09
2017-06-21T01:17:54.169Z,85.66
2017-06-21T01:19:06.390Z,85.47
2017-06-21T01:20:19.222Z,85.57
2017-06-21T01:21:31.767Z,85.85
2017-06-21T01:22:44.315Z,85.85
2017-06-21T01:23:56.842Z,85.85
2017-06-21T01:25:09.359Z,86.43
2017-06-21T01:26:21.927Z,86.14
2017-06-21T01:27:34.423Z,86.43
2017-06-21T01:28:46.944Z,86.67
2017-06-21T01:29:59.465Z,86.33
2017-06-21T01:31:11.989Z,86.71
2017-06-21T01:32:24.509Z,86.8
2017-06-21T01:33:37.035Z,86.96
2017-06-21T01:34:49.551Z,86.86
2017-06-21T01:36:02.070Z,86.86
2017-06-21T01:37:14.615Z,86.86
2017-06-21T01:38:27.137Z,86.86
2017-06-21T01:39:39.664Z,86.96
2017-06-21T01:40:51.863Z,87.34
2017-06-21T01:42:04.348Z,87.34
2017-06-21T01:43:16.894Z,87.72
2017-06-21T01:44:29.468Z,87.43
2017-06-21T01:45:42.013Z,87.62
2017-06-21T01:46:53.632Z,87.72
2017-06-21T01:48:06.159Z,87.72
2017-06-21T01:49:18.403Z,87.82
2017-06-21T01:50:30.644Z,87.72
2017-06-21T01:51:43.144Z,87.96
2017-06-21T01:52:55.069Z,87.48
2017-06-21T01:54:07.586Z,87.87
2017-06-21T01:55:20.112Z,87.87
2017-06-21T01:56:32.649Z,87.87
2017-06-21T01:57:44.856Z,87.96
2017-06-21T01:58:57.702Z,88.15
2017-06-21T02:00:10.287Z,88.44
2017-06-21T02:01:22.517Z,88.92
2017-06-21T02:02:35.061Z,88.73
2017-06-21T02:03:47.553Z,88.82
2017-06-21T02:05:00.079Z,89.01
2017-06-21T02:06:12.592Z,89.2
2017-06-21T02:07:25.124Z,88.82
2017-06-21T02:08:37.332Z,89.2
2017-06-21T02:09:49.865Z,89.01
2017-06-21T02:11:02.409Z,89.39
2017-06-21T02:12:14.654Z,89.35
2017-06-21T02:13:27.167Z,90.02
2017-06-21T02:14:39.392Z,89.92
2017-06-21T02:15:51.627Z,90.02
2017-06-21T02:17:04.163Z,89.73
2017-06-21T02:18:16.688Z,89.83
2017-06-21T02:19:28.935Z,90.02
2017-06-21T02:20:41.493Z,89.83
2017-06-21T02:21:54.038Z,90.31
2017-06-21T02:23:06.285Z,90.11
2017-06-21T02:24:18.818Z,90.02
2017-06-21T02:25:31.290Z,90.11
2017-06-21T02:26:43.832Z,90.4
2017-06-21T02:27:56.067Z,90.5
2017-06-21T02:29:08.302Z,90.69
2017-06-21T02:30:20.848Z,90.78
2017-06-21T02:31:33.106Z,90.31
2017-06-21T02:32:45.339Z,90.88
2017-06-21T02:33:57.880Z,90.21
2017-06-21T02:35:10.405Z,90.97
2017-06-21T02:36:22.948Z,90.59
2017-06-21T02:37:35.473Z,91.07
2017-06-21T02:38:47.989Z,91.36
2017-06-21T02:40:00.530Z,91.36
2017-06-21T02:41:12.774Z,91.31
2017-06-21T02:42:25.302Z,91.21
2017-06-21T02:43:37.250Z,91.12
2017-06-21T02:44:49.798Z,91.21
2017-06-21T02:46:02.343Z,91.78
2017-06-21T02:47:14.856Z,91.69
2017-06-21T02:48:27.385Z,91.78
2017-06-21T02:49:39.630Z,91.88
2017-06-21T02:50:51.851Z,91.69
2017-06-21T02:52:04.390Z,91.78
2017-06-21T02:53:16.907Z,92.17
2017-06-21T02:54:29.439Z,92.17
2017-06-21T02:55:42.007Z,92.17
2017-06-21T02:56:54.520Z,92.36
2017-06-21T02:58:07.051Z,92.07
2017-06-21T02:59:19.569Z,92.55
2017-06-21T03:00:32.133Z,92.55
2017-06-21T03:01:44.653Z,92.74
2017-06-21T03:02:57.160Z,92.83
2017-06-21T03:04:09.628Z,92.65
2017-06-21T03:05:22.165Z,92.46
2017-06-21T03:06:34.695Z,93.12
2017-06-21T03:07:47.234Z,93.12
2017-06-21T03:08:59.754Z,93.22
2017-06-21T03:10:12.300Z,93.31
2017-06-21T03:11:24.820Z,93.6
2017-06-21T03:12:37.049Z,93.31
2017-06-21T03:13:49.591Z,93.41
2017-06-21T03:15:01.820Z,93.12
2017-06-21T03:16:14.366Z,93.31
2017-06-21T03:17:26.876Z,93.41
2017-06-21T03:18:39.372Z,93.6
2017-06-21T03:19:52.141Z,93.22
2017-06-21T03:21:04.063Z,93.22
2017-06-21T03:22:16.271Z,93.31
2017-06-21T03:23:28.505Z,93.51
2017-06-21T03:24:41.052Z,93.79
2017-06-21T03:25:53.601Z,93.7
2017-06-21T03:27:06.126Z,93.88
2017-06-21T03:28:18.671Z,93.88
2017-06-21T03:29:31.188Z,93.88
2017-06-21T03:30:43.715Z,93.98
2017-06-21T03:31:55.959Z,93.98
2017-06-21T03:33:08.497Z,93.98
2017-06-21T03:34:21.029Z,94.07
2017-06-21T03:35:32.938Z,93.88
2017-06-21T03:36:45.453Z,94.27
2017-06-21T03:37:57.692Z,94.17
2017-06-21T03:39:10.231Z,94.27
2017-06-21T03:40:22.759Z,94.07
2017-06-21T03:41:35.556Z,94.17
2017-06-21T03:42:48.106Z,93.88
2017-06-21T03:44:00.364Z,94.17
2017-06-21T03:45:12.885Z,94.17
2017-06-21T03:46:25.414Z,94.17
2017-06-21T03:47:37.352Z,94.17
2017-06-21T03:48:49.905Z,94.46
2017-06-21T03:50:02.144Z,94.07
2017-06-21T03:51:14.390Z,94.17
2017-06-21T03:52:26.907Z,94.07
2017-06-21T03:53:39.421Z,94.07
2017-06-21T03:54:51.951Z,94.07
2017-06-21T03:56:04.476Z,94.17
2017-06-21T03:57:16.776Z,94.17
2017-06-21T03:58:29.294Z,94.07
2017-06-21T03:59:41.815Z,94.36
2017-06-21T04:00:54.032Z,93.88
2017-06-21T04:02:06.585Z,94.17
2017-06-21T04:03:19.102Z,94.27
2017-06-21T04:04:31.627Z,94.17
2017-06-21T04:05:44.170Z,94.17
2017-06-21T04:06:56.720Z,94.17
2017-06-21T04:08:09.244Z,94.27
2017-06-21T04:09:22.050Z,94.17
2017-06-21T04:10:34.571Z,94.17
2017-06-21T04:11:46.494Z,94.17
2017-06-21T04:12:59.023Z,94.07
2017-06-21T04:14:11.245Z,93.88
2017-06-21T04:15:23.811Z,93.98
2017-06-21T04:16:36.037Z,93.98
2017-06-21T04:17:48.553Z,93.88
2017-06-21T04:19:01.092Z,93.6
2017-06-21T04:20:13.914Z,93.6
2017-06-21T04:21:26.412Z,93.79
2017-06-21T04:22:38.932Z,93.51
2017-06-21T04:23:51.161Z,93.79
2017-06-21T04:25:03.697Z,93.7
2017-06-21T04:26:15.921Z,93.51
2017-06-21T04:27:28.138Z,93.6
2017-06-21T04:28:40.713Z,93.51
2017-06-21T04:29:53.240Z,93.46
2017-06-21T04:31:05.516Z,93.84
2017-06-21T04:32:18.050Z,93.7
2017-06-21T04:33:30.560Z,93.46
2017-06-21T04:34:42.800Z,93.55
2017-06-21T04:35:55.317Z,93.17
2017-06-21T04:37:07.533Z,93.17
2017-06-21T04:38:20.081Z,93.36
2017-06-21T04:39:32.608Z,93.36
2017-06-21T04:40:45.146Z,93.36
2017-06-21T04:41:57.676Z,93.46
2017-06-21T04:43:09.912Z,93.55
2017-06-21T04:44:22.443Z,93.36
2017-06-21T04:45:34.660Z,92.88
2017-06-21T04:46:47.197Z,92.88
2017-06-21T04:47:59.755Z,92.6
2017-06-21T04:49:11.993Z,92.69
2017-06-21T04:50:24.201Z,92.69
2017-06-21T04:51:36.724Z,92.6
2017-06-21T04:52:49.235Z,92.31
2017-06-21T04:54:01.781Z,92.5
2017-06-21T04:55:14.326Z,92.55
2017-06-21T04:56:26.848Z,92.55
2017-06-21T04:57:39.701Z,92.55
2017-06-21T04:58:52.241Z,92.26
2017-06-21T05:00:04.763Z,92.26
2017-06-21T05:01:17.007Z,92.36
2017-06-21T05:02:29.530Z,91.78
2017-06-21T05:03:41.801Z,91.78
2017-06-21T05:04:54.336Z,91.4
2017-06-21T05:06:06.535Z,91.4
2017-06-21T05:07:19.057Z,91.3
2017-06-21T05:08:31.054Z,91.35
2017-06-21T05:09:42.995Z,91.25
2017-06-21T05:10:55.503Z,91.25
2017-06-21T05:12:07.737Z,90.88
2017-06-21T05:13:19.996Z,90.78
2017-06-21T05:14:32.517Z,90.59
2017-06-21T05:15:45.074Z,90.3
2017-06-21T05:16:57.599Z,90.44
2017-06-21T05:18:10.145Z,89.77
2017-06-21T05:19:22.613Z,89.29
2017-06-21T05:20:35.116Z,89.2
2017-06-21T05:21:47.662Z,89.1
2017-06-21T05:23:00.204Z,89.05
2017-06-21T05:24:12.750Z,88.76
2017-06-21T05:25:24.980Z,88.29
2017-06-21T05:26:37.517Z,88.04
2017-06-21T05:27:50.087Z,87.18
2017-06-21T05:29:02.618Z,86.17
2017-06-21T05:30:15.187Z,86.08
2017-06-21T05:31:27.722Z,84.45
2017-06-21T05:32:39.646Z,84.58
2017-06-21T05:33:51.875Z,83.76
2017-06-21T05:35:04.467Z,82.62
2017-06-21T05:36:16.991Z,82.65
2017-06-21T05:37:29.209Z,82.08
2017-06-21T05:38:41.425Z,81.6
2017-06-21T05:39:53.967Z,81.31
2017-06-21T05:41:06.769Z,80.87
2017-06-21T05:42:19.292Z,80.97
2017-06-21T05:43:31.818Z,80.68
2017-06-21T05:44:44.054Z,80.4
2017-06-21T05:45:56.302Z,79.91
2017-06-21T05:47:08.848Z,80.87
2017-06-21T05:48:21.389Z,80.01
2017-06-21T05:49:33.938Z,80.58
2017-06-21T05:50:46.481Z,80.3
2017-06-21T05:51:59.014Z,80.2
2017-06-21T05:53:11.256Z,80.55
2017-06-21T05:54:23.780Z,80.35
2017-06-21T05:55:36.343Z,80.64
2017-06-21T05:56:48.864Z,80.83
2017-06-21T05:58:01.389Z,80.74
2017-06-21T05:59:13.931Z,80.64
2017-06-21T06:00:26.157Z,80.79
2017-06-21T06:01:38.369Z,80.79
2017-06-21T06:02:51.193Z,81.46
2017-06-21T06:04:03.737Z,81.18
2017-06-21T06:05:16.265Z,81.66
2017-06-21T06:06:28.485Z,81.27
2017-06-21T06:07:40.987Z,82.23
2017-06-21T06:08:53.794Z,82.14
2017-06-21T06:10:06.015Z,82.52
2017-06-21T06:11:18.262Z,82.04
2017-06-21T06:12:30.791Z,81.95
2017-06-21T06:13:43.036Z,82.04
2017-06-21T06:14:55.575Z,82.14
2017-06-21T06:16:07.771Z,81.66
2017-06-21T06:17:20.016Z,82.14
2017-06-21T06:18:32.537Z,81.41
2017-06-21T06:19:45.036Z,81.51
2017-06-21T06:20:57.290Z,81.6
2017-06-21T06:22:09.533Z,81.51
2017-06-21T06:23:22.046Z,81.22
2017-06-21T06:24:34.845Z,80.87
2017-06-21T06:25:46.789Z,80.3
2017-06-21T06:26:59.034Z,79.47
2017-06-21T06:28:11.553Z,78.65
2017-06-21T06:29:23.786Z,77.73
2017-06-21T06:30:36.346Z,76.61
2017-06-21T06:31:48.292Z,75.69
2017-06-21T06:33:00.823Z,74.82
2017-06-21T06:34:13.071Z,73.8
2017-06-21T06:35:25.662Z,73.26
2017-06-21T06:36:37.879Z,73.26
2017-06-21T06:37:50.148Z,73.01
2017-06-21T06:39:02.700Z,72.24
2017-06-21T06:40:15.246Z,71.89
2017-06-21T06:41:27.785Z,70.76
2017-06-21T06:42:39.731Z,69.9
2017-06-21T06:43:51.959Z,69.07
2017-06-21T06:45:04.197Z,67.65
2017-06-21T06:46:16.422Z,65.47
2017-06-21T06:47:28.997Z,64.53
2017-06-21T06:48:41.543Z,62.82
2017-06-21T06:49:53.791Z,60.89
2017-06-21T06:51:05.727Z,59.86
2017-06-21T06:52:18.273Z,59.01
2017-06-21T06:53:30.517Z,57.37
2017-06-21T06:54:42.474Z,56.72
2017-06-21T06:55:53.839Z,56.46
2017-06-21T06:57:06.385Z,56.07
2017-06-21T06:58:18.656Z,55.49
2017-06-21T06:59:30.630Z,53.97
2017-06-21T07:00:42.269Z,53.87
2017-06-21T07:01:54.798Z,52.54
2017-06-21T07:03:07.336Z,51.98
2017-06-21T07:04:19.618Z,51.5
2017-06-21T07:05:31.836Z,50.94
2017-06-21T07:06:44.082Z,49.99
2017-06-21T07:07:56.623Z,49.51
2017-06-21T07:09:09.205Z,48.93
2017-06-21T07:10:21.769Z,48.57
2017-06-21T07:11:34.337Z,48.47
2017-06-21T07:12:46.911Z,48.85
2017-06-21T07:13:59.457Z,48.27
2017-06-21T07:15:11.736Z,47.52
2017-06-21T07:16:24.251Z,47.23
2017-06-21T07:17:36.812Z,45.87
2017-06-21T07:18:49.358Z,46.35
2017-06-21T07:20:01.883Z,46.64
2017-06-21T07:21:14.127Z,46.25
2017-06-21T07:22:26.078Z,46.06
2017-06-21T07:23:38.320Z,45.5
2017-06-21T07:24:50.877Z,45.11
2017-06-21T07:26:03.116Z,45.04
2017-06-21T07:27:15.084Z,45.04
2017-06-21T07:28:27.613Z,44.16
2017-06-21T07:29:39.846Z,44.45
2017-06-21T07:30:52.401Z,44.74
2017-06-21T07:32:04.328Z,44.16
2017-06-21T07:33:16.941Z,44.26
2017-06-21T07:34:29.458Z,44.74
2017-06-21T07:35:41.713Z,44.55
2017-06-21T07:36:54.283Z,44.62
2017-06-21T07:38:06.843Z,44.92
2017-06-21T07:39:19.446Z,45.04
2017-06-21T07:40:32.342Z,44.74
2017-06-21T07:41:44.605Z,44.65
2017-06-21T07:42:57.163Z,44.67
2017-06-21T07:44:09.727Z,44.09
2017-06-21T07:45:22.297Z,43.4
2017-06-21T07:46:34.842Z,43.62
2017-06-21T07:47:47.110Z,43.71
2017-06-21T07:48:58.740Z,43.33
2017-06-21T07:50:11.285Z,43.33
2017-06-21T07:51:23.856Z,43.3
2017-06-21T07:52:36.397Z,43.52
2017-06-21T07:53:48.967Z,43.11
2017-06-21T07:55:01.522Z,43.43
2017-06-21T07:56:14.092Z,43.52
2017-06-21T07:57:26.652Z,43.23
2017-06-21T07:58:39.181Z,43.13
2017-06-21T07:59:51.727Z,42.94
2017-06-21T08:01:03.968Z,42.16
2017-06-21T08:02:16.547Z,42.25
2017-06-21T08:03:28.833Z,42.28
2017-06-21T08:04:41.377Z,42.47
2017-06-21T08:05:53.632Z,41.4
2017-06-21T08:07:06.195Z,41.6
2017-06-21T08:08:18.715Z,41.4
2017-06-21T08:09:30.948Z,41.4
2017-06-21T08:10:43.495Z,41.5
2017-06-21T08:11:55.753Z,41.2
2017-06-21T08:13:08.306Z,41.69
2017-06-21T08:14:20.854Z,42.28
2017-06-21T08:15:33.398Z,42.28
2017-06-21T08:16:45.648Z,42.28
2017-06-21T08:17:58.194Z,41.99
2017-06-21T08:19:11.030Z,41.52
2017-06-21T08:20:23.288Z,41.91
2017-06-21T08:21:35.874Z,41.71
2017-06-21T08:22:48.126Z,41.05
2017-06-21T08:24:00.674Z,40.95
2017-06-21T08:25:12.936Z,40.66
2017-06-21T08:26:25.179Z,40.56
2017-06-21T08:27:37.733Z,40.76
2017-06-21T08:28:50.282Z,40.66
2017-06-21T08:30:02.829Z,40
2017-06-21T08:31:15.400Z,38.81
2017-06-21T08:32:27.990Z,38.9
2017-06-21T08:33:39.954Z,39.39
2017-06-21T08:34:52.212Z,39.96
2017-06-21T08:36:04.779Z,39.96
2017-06-21T08:37:17.035Z,40.35
2017-06-21T08:38:29.571Z,40.25
2017-06-21T08:39:41.814Z,40.16
2017-06-21T08:40:54.363Z,40.45
2017-06-21T08:42:06.913Z,40.64
2017-06-21T08:43:19.180Z,40.35
2017-06-21T08:44:31.428Z,39.96
2017-06-21T08:45:43.975Z,39.37
2017-06-21T08:46:56.218Z,39.65
2017-06-21T08:48:08.488Z,40.13
2017-06-21T08:49:21.037Z,40.42
2017-06-21T08:50:33.662Z,40.42
2017-06-21T08:51:46.244Z,40.52
2017-06-21T08:52:58.493Z,40.62
2017-06-21T08:54:10.771Z,40.91
2017-06-21T08:55:23.309Z,39.45
2017-06-21T08:56:35.585Z,39.94
2017-06-21T08:57:47.230Z,39.94
2017-06-21T08:58:59.495Z,39.94
2017-06-21T09:00:11.744Z,39.94
2017-06-21T09:01:24.311Z,40.35
2017-06-21T09:02:36.868Z,39.96
2017-06-21T09:03:49.463Z,39.47
2017-06-21T09:05:01.406Z,39.28
2017-06-21T09:06:13.952Z,39.49
2017-06-21T09:07:26.191Z,39.39
2017-06-21T09:08:38.444Z,38.81
2017-06-21T09:09:51.019Z,38.32
2017-06-21T09:11:03.585Z,37.75
2017-06-21T09:12:16.136Z,37.65
2017-06-21T09:13:28.654Z,37.37
2017-06-21T09:14:40.927Z,37.65
2017-06-21T09:15:53.494Z,37.46
2017-06-21T09:17:05.741Z,37.09
2017-06-21T09:18:18.264Z,38.16
2017-06-21T09:19:29.910Z,38.43
2017-06-21T09:20:42.478Z,38.34
2017-06-21T09:21:55.044Z,38.92
2017-06-21T09:23:07.625Z,39.51
2017-06-21T09:24:20.187Z,39.02
2017-06-21T09:25:32.759Z,38.53
2017-06-21T09:26:45.360Z,38.69
2017-06-21T09:27:57.622Z,39.28
2017-06-21T09:29:10.203Z,39.37
2017-06-21T09:30:22.176Z,38.49
2017-06-21T09:31:34.437Z,38.3
2017-06-21T09:32:46.987Z,38.4
2017-06-21T09:33:59.261Z,38.32
2017-06-21T09:35:11.807Z,38.12
2017-06-21T09:36:24.367Z,38.02
2017-06-21T09:37:36.896Z,38.14
2017-06-21T09:38:49.433Z,38.14
2017-06-21T09:40:01.438Z,38.16
2017-06-21T09:41:13.701Z,38.16
2017-06-21T09:42:26.260Z,37.87
2017-06-21T09:43:38.878Z,37.89
2017-06-21T09:44:51.174Z,38.38
2017-06-21T09:46:03.437Z,37.5
2017-06-21T09:47:15.692Z,37.12
2017-06-21T09:48:27.660Z,36.83
2017-06-21T09:49:39.613Z,36.36
2017-06-21T09:50:52.171Z,35.48
2017-06-21T09:52:04.699Z,34.8
2017-06-21T09:53:16.643Z,35.01
2017-06-21T09:54:29.214Z,35.21
2017-06-21T09:55:41.784Z,35.69
2017-06-21T09:56:54.060Z,35.52
2017-06-21T09:58:06.631Z,35.61
2017-06-21T09:59:19.218Z,36.1
2017-06-21T10:00:31.789Z,36.1
2017-06-21T10:01:44.367Z,35.32
2017-06-21T10:02:56.926Z,35.04
2017-06-21T10:04:08.556Z,34.28
2017-06-21T10:05:21.127Z,34.38
2017-06-21T10:06:33.694Z,35.27
2017-06-21T10:07:46.243Z,35.08
2017-06-21T10:08:58.486Z,34.39
2017-06-21T10:10:11.053Z,34.11
2017-06-21T10:11:23.641Z,33.94
2017-06-21T10:12:35.614Z,33.44
2017-06-21T10:13:48.193Z,33.15
2017-06-21T10:15:00.445Z,33.07
2017-06-21T10:16:12.714Z,32.57
2017-06-21T10:17:24.989Z,32.28
2017-06-21T10:18:37.549Z,32.68
2017-06-21T10:19:49.831Z,32.18
2017-06-21T10:21:02.395Z,32.18
2017-06-21T10:22:14.662Z,31.99
2017-06-21T10:23:27.208Z,32.18
2017-06-21T10:24:39.458Z,32.68
2017-06-21T10:25:52.036Z,32.37
2017-06-21T10:27:04.282Z,32.48
2017-06-21T10:28:16.523Z,32.46
2017-06-21T10:29:28.790Z,32.66
2017-06-21T10:30:41.061Z,32.46
2017-06-21T10:31:53.334Z,32.17
2017-06-21T10:33:05.583Z,30.22
2017-06-21T10:34:18.149Z,30.52
2017-06-21T10:35:30.101Z,30.52
2017-06-21T10:36:42.045Z,30.33
2017-06-21T10:37:53.983Z,30.53
2017-06-21T10:39:06.265Z,30.63
2017-06-21T10:40:18.837Z,30.53
2017-06-21T10:41:31.100Z,29.96
2017-06-21T10:42:43.354Z,30.55
2017-06-21T10:43:55.942Z,30.53
2017-06-21T10:45:08.517Z,30.55
2017-06-21T10:46:20.784Z,30.55
2017-06-21T10:47:33.351Z,30.25
2017-06-21T10:48:45.876Z,30.55
2017-06-21T10:49:58.125Z,30.43
2017-06-21T10:51:10.374Z,29.64
2017-06-21T10:52:22.642Z,29.96
2017-06-21T10:53:35.190Z,29.25
2017-06-21T10:54:47.738Z,29.75
2017-06-21T10:55:59.401Z,29.75
2017-06-21T10:57:11.655Z,29.47
2017-06-21T10:58:24.218Z,29.27
2017-06-21T10:59:36.764Z,29.37
2017-06-21T11:00:49.040Z,29.86
2017-06-21T11:02:01.606Z,29.76
2017-06-21T11:03:13.880Z,29.76
2017-06-21T11:04:26.451Z,29.76
2017-06-21T11:05:39.022Z,29.75
2017-06-21T11:06:51.589Z,29.85
2017-06-21T11:08:03.832Z,29.06
2017-06-21T11:09:16.385Z,29.25
2017-06-21T11:10:28.980Z,29.75
2017-06-21T11:11:41.527Z,30.22
2017-06-21T11:12:53.200Z,30.12
2017-06-21T11:14:05.747Z,30.73
2017-06-21T11:15:18.308Z,29.94
2017-06-21T11:16:30.853Z,29.66
2017-06-21T11:17:43.634Z,29.77
2017-06-21T11:18:55.877Z,29.86
2017-06-21T11:20:08.427Z,30.17
2017-06-21T11:21:21.011Z,30.07
2017-06-21T11:22:33.265Z,30.28
2017-06-21T11:23:45.507Z,29.39
2017-06-21T11:24:58.033Z,29.49
2017-06-21T11:26:10.577Z,29.3
2017-06-21T11:27:23.121Z,29.41
2017-06-21T11:28:35.662Z,29.51
2017-06-21T11:29:48.216Z,29.02
2017-06-21T11:31:00.782Z,29.11
2017-06-21T11:32:13.332Z,28.92
2017-06-21T11:33:25.875Z,28.42
2017-06-21T11:34:38.453Z,28.13
2017-06-21T11:35:51.022Z,28.52
2017-06-21T11:37:03.558Z,28.92
2017-06-21T11:38:15.829Z,28.91
2017-06-21T11:39:28.360Z,29.11
2017-06-21T11:40:40.909Z,29.3
2017-06-21T11:41:53.150Z,28.91
2017-06-21T11:43:05.713Z,29.1
2017-06-21T11:44:17.963Z,28.4
2017-06-21T11:45:30.233Z,28.5
2017-06-21T11:46:42.515Z,29.07
2017-06-21T11:47:54.479Z,28.88
2017-06-21T11:49:07.047Z,29.96
2017-06-21T11:50:19.363Z,29.28
2017-06-21T11:51:31.888Z,29.38
2017-06-21T11:52:44.141Z,29.48
2017-06-21T11:53:56.684Z,28.99
2017-06-21T11:55:08.934Z,29.1
2017-06-21T11:56:21.493Z,29.2
2017-06-21T11:57:33.755Z,28.72
2017-06-21T11:58:45.421Z,27.94
2017-06-21T11:59:56.790Z,28.03
2017-06-21T12:01:08.134Z,27.72
2017-06-21T12:02:20.081Z,27.82
2017-06-21T12:03:32.055Z,28.31
2017-06-21T12:04:43.426Z,28.5
2017-06-21T12:05:55.399Z,29.09
2017-06-21T12:07:07.060Z,28.49
2017-06-21T12:08:19.314Z,29.07
2017-06-21T12:09:31.283Z,29.37
2017-06-21T12:10:42.944Z,29.27
2017-06-21T12:11:54.869Z,29.16
2017-06-21T12:13:07.127Z,29.35
2017-06-21T12:14:19.065Z,28.86
2017-06-21T12:15:30.739Z,28.16
2017-06-21T12:16:42.409Z,28.45
2017-06-21T12:17:53.745Z,28.85
2017-06-21T12:19:05.376Z,28.06
2017-06-21T12:20:17.616Z,28.44
2017-06-21T12:21:29.568Z,28.13
2017-06-21T12:22:41.515Z,29.11
2017-06-21T12:23:53.450Z,28.91
2017-06-21T12:25:05.409Z,28.81
2017-06-21T12:26:16.457Z,29
2017-06-21T12:27:27.499Z,29.1
2017-06-21T12:28:40.058Z,28.91
2017-06-21T12:29:51.404Z,28.92
2017-06-21T12:31:03.061Z,29.11
2017-06-21T12:32:15.621Z,28.92
2017-06-21T12:33:27.575Z,28.82
2017-06-21T12:34:38.923Z,28.05
2017-06-21T12:35:51.188Z,27.26
2017-06-21T12:37:03.766Z,27.75
2017-06-21T12:38:16.334Z,27.75
2017-06-21T12:39:28.876Z,27.85
2017-06-21T12:40:41.422Z,27.08
2017-06-21T12:41:53.665Z,27.67
2017-06-21T12:43:05.917Z,27.37
2017-06-21T12:44:17.280Z,27.97
2017-06-21T12:45:28.639Z,27.67
2017-06-21T12:46:41.197Z,26.69
2017-06-21T12:47:53.455Z,26.2
2017-06-21T12:49:05.715Z,26.2
2017-06-21T12:50:18.246Z,26.4
2017-06-21T12:51:30.509Z,27.08
2017-06-21T12:52:42.788Z,25.72
2017-06-21T12:53:54.752Z,24.35
2017-06-21T12:55:06.704Z,24.54
2017-06-21T12:56:19.273Z,25.12
2017-06-21T12:57:31.547Z,25.51
2017-06-21T12:58:43.806Z,25.71
2017-06-21T12:59:55.757Z,25.72
2017-06-21T13:01:08.026Z,25.81
2017-06-21T13:02:19.975Z,26.4
2017-06-21T13:03:32.502Z,26.58
2017-06-21T13:04:45.040Z,26.48
2017-06-21T13:05:57.282Z,27.17
2017-06-21T13:07:09.832Z,26
2017-06-21T13:08:22.399Z,25.92
2017-06-21T13:09:34.624Z,25.62
2017-06-21T13:10:46.867Z,25.72
2017-06-21T13:11:58.811Z,25.43
2017-06-21T13:13:10.158Z,25.23
2017-06-21T13:14:22.393Z,25.23
2017-06-21T13:15:34.954Z,25.32
2017-06-21T13:16:47.775Z,25.71
2017-06-21T13:17:59.728Z,25.71
2017-06-21T13:19:11.986Z,26.2
2017-06-21T13:20:23.944Z,26.18
2017-06-21T13:21:36.212Z,25.39
2017-06-21T13:22:48.761Z,25.98
2017-06-21T13:24:01.326Z,25.78
2017-06-21T13:25:13.878Z,25.57
2017-06-21T13:26:26.121Z,25.77
2017-06-21T13:27:38.641Z,26.06
2017-06-21T13:28:51.216Z,26.55
2017-06-21T13:30:03.776Z,26.56
2017-06-21T13:31:16.297Z,26.56
2017-06-21T13:32:28.843Z,26.37
2017-06-21T13:33:41.399Z,26.46
2017-06-21T13:34:53.959Z,26.46
2017-06-21T13:36:06.194Z,26.46
2017-06-21T13:37:18.434Z,26.46
2017-06-21T13:38:30.980Z,26.76
2017-06-21T13:39:43.555Z,27.25
2017-06-21T13:40:55.815Z,27.06
2017-06-21T13:42:08.038Z,27.46
2017-06-21T13:43:20.615Z,27.66
2017-06-21T13:44:32.851Z,27.37
2017-06-21T13:45:45.108Z,27.08
2017-06-21T13:46:57.343Z,27.28
2017-06-21T13:48:09.897Z,27.18
2017-06-21T13:49:22.446Z,26.98
2017-06-21T13:50:34.681Z,27.18
2017-06-21T13:51:47.210Z,26.87
2017-06-21T13:52:59.760Z,27.26
2017-06-21T13:54:12.368Z,27.08
2017-06-21T13:55:24.289Z,27.08
2017-06-21T13:56:36.839Z,27.46
2017-06-21T13:57:49.414Z,27.46
2017-06-21T13:59:01.656Z,27.46
2017-06-21T14:00:13.907Z,27.55
2017-06-21T14:01:26.469Z,27.36
2017-06-21T14:02:38.726Z,27.26
2017-06-21T14:03:51.264Z,27.07
2017-06-21T14:05:03.219Z,27.15
2017-06-21T14:06:15.764Z,27.45
2017-06-21T14:07:28.325Z,27.35
2017-06-21T14:08:40.870Z,27.73
2017-06-21T14:09:53.121Z,28.02
2017-06-21T14:11:05.365Z,28.31
2017-06-21T14:12:17.940Z,28.2
2017-06-21T14:13:30.205Z,28.5
2017-06-21T14:14:42.753Z,28.11
2017-06-21T14:15:54.724Z,28.3
2017-06-21T14:17:06.999Z,28.3
2017-06-21T14:18:19.520Z,28.5
2017-06-21T14:19:32.059Z,27.81
2017-06-21T14:20:43.990Z,27.62
2017-06-21T14:21:56.558Z,27.42
2017-06-21T14:23:09.132Z,28.01
2017-06-21T14:24:21.399Z,27.12
2017-06-21T14:25:33.921Z,27.42
2017-06-21T14:26:46.462Z,27.33
2017-06-21T14:27:58.716Z,27.61
2017-06-21T14:29:11.276Z,28.29
2017-06-21T14:30:23.534Z,28.39
2017-06-21T14:31:36.068Z,28.96
2017-06-21T14:32:48.619Z,28.96
2017-06-21T14:34:00.867Z,28.86
2017-06-21T14:35:13.131Z,28.47
2017-06-21T14:36:25.334Z,28.96
2017-06-21T14:37:37.879Z,28.86
2017-06-21T14:38:50.429Z,29.06
2017-06-21T14:40:02.992Z,29.04
2017-06-21T14:41:15.238Z,29.63
2017-06-21T14:42:27.188Z,30.41
2017-06-21T14:43:39.754Z,30.41
2017-06-21T14:44:52.001Z,30.32
2017-06-21T14:46:04.556Z,30.51
2017-06-21T14:47:16.825Z,29.06
2017-06-21T14:48:29.067Z,29.55
2017-06-21T14:49:41.591Z,29.64
2017-06-21T14:50:54.127Z,29.74
2017-06-21T14:52:06.685Z,29.35
2017-06-21T14:53:19.233Z,28.77
2017-06-21T14:54:31.764Z,28.94
2017-06-21T14:55:44.000Z,28.85
2017-06-21T14:56:56.557Z,29.32
2017-06-21T14:58:09.080Z,29.6
2017-06-21T14:59:21.623Z,29.99
2017-06-21T15:00:33.852Z,30.37
2017-06-21T15:01:46.396Z,30.45
2017-06-21T15:02:58.940Z,31.04
2017-06-21T15:04:11.491Z,31.12
2017-06-21T15:05:23.736Z,31.49
2017-06-21T15:06:36.292Z,31.57
2017-06-21T15:07:48.833Z,32.16
2017-06-21T15:09:01.079Z,32.62
2017-06-21T15:10:13.622Z,32.99
2017-06-21T15:11:25.860Z,33.85
2017-06-21T15:12:37.486Z,33.56
2017-06-21T15:13:49.111Z,34.22
2017-06-21T15:15:01.082Z,34.61
2017-06-21T15:16:12.415Z,34.67
2017-06-21T15:17:24.037Z,35.74
2017-06-21T15:18:35.658Z,35.92
2017-06-21T15:19:47.561Z,36.02
2017-06-21T15:20:59.488Z,36.58
2017-06-21T15:22:11.145Z,36.58
2017-06-21T15:23:22.772Z,36.19
2017-06-21T15:24:35.004Z,36.66
2017-06-21T15:25:46.617Z,36.95
2017-06-21T15:26:58.548Z,37.63
2017-06-21T15:28:11.075Z,37.82
2017-06-21T15:29:22.708Z,37.51
2017-06-21T15:30:34.343Z,37.13
2017-06-21T15:31:45.973Z,37.71
2017-06-21T15:32:57.309Z,38.07
2017-06-21T15:34:08.938Z,37.69
2017-06-21T15:35:21.180Z,37.79